RYR77SJ EGPH-LEAL
Flight info
| Callsign | RYR77SJ |
|---|---|
| Flight time | 2h 45m |
| Altitude | 37000 |
| Route | GOSAM P600 FENIK L612 NAVSO DCT ADZOP DCT EGTOC DCT NOKIN N862 KARNO/N0445F380 DCT ALHUP DCT ABWIV DCT PACSE DCT TONQU/N0441F370 DCT MANIG DCT KORER UN26 UVUDO UN862 UTISO DCT OSMOB DCT TBO DCT PERDU DCT POSSY DCT XIMPE DCT RIMES DCT SAURA DCT TATOS N860 PLANA DCT VLC |
| Aircraft | B38M/M-SDE1FGHILORVWXY/HB1 |
Departure
| Time | 2026-04-26 08:38 |
|---|---|
| Airport | Edinburgh Airport (EGPH) |
Arrival
| Time | 2026-04-26 11:24 |
|---|---|
| Airport | Alicante-Elche Miguel Hernández Airport (LEAL) |
| Time | Latitude | Longitude | Altitude | Speed | Heading |
|---|---|---|---|---|---|
| 2026-04-26 08:09 | 55.94802 | -3.35682 | 115 ft | 0 kts | 208° |
| 2026-04-26 08:30 | 55.94803 | -3.35682 | 115 ft | 1 kts | 208° |
| 2026-04-26 08:30 | 55.94823 | -3.35662 | 113 ft | 4 kts | 208° |
| 2026-04-26 08:30 | 55.94845 | -3.35640 | 111 ft | 4 kts | 223° |
| 2026-04-26 08:31 | 55.94853 | -3.35606 | 111 ft | 4 kts | 283° |
| 2026-04-26 08:31 | 55.94845 | -3.35571 | 113 ft | 1 kts | 299° |
| 2026-04-26 08:31 | 55.94843 | -3.35565 | 113 ft | 0 kts | 299° |
| 2026-04-26 08:34 | 55.94852 | -3.35594 | 111 ft | 7 kts | 298° |
| 2026-04-26 08:35 | 55.94885 | -3.35702 | 113 ft | 11 kts | 298° |
| 2026-04-26 08:35 | 55.94928 | -3.35832 | 113 ft | 13 kts | 313° |
| 2026-04-26 08:35 | 55.95015 | -3.35837 | 114 ft | 14 kts | 29° |
| 2026-04-26 08:35 | 55.95104 | -3.35827 | 114 ft | 15 kts | 308° |
| 2026-04-26 08:36 | 55.95173 | -3.35958 | 115 ft | 12 kts | 327° |
| 2026-04-26 08:36 | 55.95244 | -3.35950 | 115 ft | 10 kts | 46° |
| 2026-04-26 08:36 | 55.95285 | -3.35838 | 112 ft | 12 kts | 59° |
| 2026-04-26 08:36 | 55.95330 | -3.35703 | 112 ft | 14 kts | 59° |
| 2026-04-26 08:37 | 55.95381 | -3.35554 | 116 ft | 14 kts | 58° |
| 2026-04-26 08:37 | 55.95439 | -3.35419 | 117 ft | 14 kts | 26° |
| 2026-04-26 08:37 | 55.95514 | -3.35461 | 113 ft | 9 kts | 328° |
| 2026-04-26 08:37 | 55.95562 | -3.35536 | 115 ft | 9 kts | 284° |
| 2026-04-26 08:38 | 55.95532 | -3.35678 | 115 ft | 19 kts | 239° |
| 2026-04-26 08:38 | 55.95324 | -3.36293 | 109 ft | 100 kts | 239° |
| 2026-04-26 08:38 | 55.94842 | -3.37724 | 158 ft | 161 kts | 239° |
| 2026-04-26 08:38 | 55.94252 | -3.39510 | 853 ft | 173 kts | 240° |
| 2026-04-26 08:39 | 55.93641 | -3.41386 | 1814 ft | 178 kts | 239° |
| 2026-04-26 08:39 | 55.93024 | -3.43251 | 2793 ft | 172 kts | 238° |
| 2026-04-26 08:39 | 55.92339 | -3.45174 | 3280 ft | 194 kts | 237° |
| 2026-04-26 08:39 | 55.91572 | -3.47319 | 3722 ft | 216 kts | 237° |
| 2026-04-26 08:40 | 55.90752 | -3.49728 | 4142 ft | 239 kts | 245° |
| 2026-04-26 08:40 | 55.90370 | -3.52629 | 5031 ft | 245 kts | 259° |
| 2026-04-26 08:40 | 55.90032 | -3.55718 | 5247 ft | 262 kts | 258° |
| 2026-04-26 08:40 | 55.89688 | -3.58914 | 6109 ft | 260 kts | 258° |
| 2026-04-26 08:41 | 55.89354 | -3.62097 | 7130 ft | 263 kts | 258° |
| 2026-04-26 08:41 | 55.89021 | -3.65324 | 8047 ft | 266 kts | 258° |
| 2026-04-26 08:41 | 55.88693 | -3.68536 | 8994 ft | 269 kts | 258° |
| 2026-04-26 08:41 | 55.88354 | -3.71876 | 9941 ft | 271 kts | 258° |
| 2026-04-26 08:42 | 55.88022 | -3.75157 | 10736 ft | 278 kts | 258° |
| 2026-04-26 08:42 | 55.87676 | -3.78587 | 11141 ft | 297 kts | 258° |
| 2026-04-26 08:42 | 55.87299 | -3.82393 | 11666 ft | 312 kts | 258° |
| 2026-04-26 08:42 | 55.86916 | -3.86249 | 12348 ft | 319 kts | 258° |
| 2026-04-26 08:43 | 55.86328 | -3.90053 | 13181 ft | 321 kts | 242° |
| 2026-04-26 08:43 | 55.84924 | -3.93133 | 13996 ft | 325 kts | 219° |
| 2026-04-26 08:43 | 55.82943 | -3.95110 | 14692 ft | 332 kts | 201° |
| 2026-04-26 08:43 | 55.80666 | -3.95868 | 15440 ft | 338 kts | 182° |
| 2026-04-26 08:44 | 55.78336 | -3.95219 | 16173 ft | 346 kts | 167° |
| 2026-04-26 08:44 | 55.75978 | -3.94164 | 16858 ft | 350 kts | 170° |
| 2026-04-26 08:44 | 55.73595 | -3.93155 | 17554 ft | 353 kts | 170° |
| 2026-04-26 08:44 | 55.71198 | -3.92141 | 18231 ft | 357 kts | 170° |
| 2026-04-26 08:45 | 55.68767 | -3.91115 | 18856 ft | 361 kts | 170° |
| 2026-04-26 08:45 | 55.66309 | -3.90080 | 19419 ft | 364 kts | 170° |
| 2026-04-26 08:45 | 55.63828 | -3.89034 | 19986 ft | 368 kts | 170° |
| 2026-04-26 08:45 | 55.61327 | -3.87983 | 20534 ft | 372 kts | 170° |
| 2026-04-26 08:46 | 55.58795 | -3.86919 | 21076 ft | 375 kts | 170° |
| 2026-04-26 08:46 | 55.56236 | -3.85844 | 21621 ft | 379 kts | 170° |
| 2026-04-26 08:46 | 55.53663 | -3.84767 | 22155 ft | 383 kts | 170° |
| 2026-04-26 08:46 | 55.51059 | -3.83678 | 22693 ft | 386 kts | 170° |
| 2026-04-26 08:47 | 55.48430 | -3.82576 | 23219 ft | 390 kts | 171° |
| 2026-04-26 08:47 | 55.45781 | -3.81473 | 23735 ft | 393 kts | 170° |
| 2026-04-26 08:47 | 55.43106 | -3.80358 | 24183 ft | 396 kts | 171° |
| 2026-04-26 08:47 | 55.40414 | -3.79241 | 24620 ft | 399 kts | 171° |
| 2026-04-26 08:48 | 55.37702 | -3.78111 | 25052 ft | 402 kts | 171° |
| 2026-04-26 08:48 | 55.34978 | -3.76978 | 25489 ft | 404 kts | 171° |
| 2026-04-26 08:48 | 55.32222 | -3.75836 | 25902 ft | 407 kts | 171° |
| 2026-04-26 08:48 | 55.29459 | -3.74692 | 26323 ft | 409 kts | 171° |
| 2026-04-26 08:49 | 55.26677 | -3.73541 | 26724 ft | 412 kts | 171° |
| 2026-04-26 08:49 | 55.23914 | -3.72399 | 27127 ft | 414 kts | 171° |
| 2026-04-26 08:49 | 55.21100 | -3.71237 | 27525 ft | 417 kts | 171° |
| 2026-04-26 08:49 | 55.18268 | -3.70069 | 27920 ft | 419 kts | 171° |
| 2026-04-26 08:50 | 55.15414 | -3.68895 | 28327 ft | 422 kts | 172° |
| 2026-04-26 08:50 | 55.12544 | -3.67716 | 28709 ft | 424 kts | 172° |
| 2026-04-26 08:50 | 55.09670 | -3.66536 | 29078 ft | 427 kts | 172° |
| 2026-04-26 08:50 | 55.06760 | -3.65342 | 29449 ft | 429 kts | 172° |
| 2026-04-26 08:51 | 55.00907 | -3.62949 | 30144 ft | 434 kts | 172° |
| 2026-04-26 08:51 | 54.97958 | -3.61746 | 30467 ft | 436 kts | 172° |
| 2026-04-26 08:51 | 54.94996 | -3.60538 | 30767 ft | 438 kts | 172° |
| 2026-04-26 08:52 | 54.92014 | -3.59324 | 31062 ft | 440 kts | 172° |
| 2026-04-26 08:52 | 54.89031 | -3.58110 | 31369 ft | 441 kts | 172° |
| 2026-04-26 08:52 | 54.86036 | -3.56895 | 31655 ft | 443 kts | 172° |
| 2026-04-26 08:52 | 54.83025 | -3.55675 | 31938 ft | 445 kts | 172° |
| 2026-04-26 08:53 | 54.80005 | -3.54453 | 32218 ft | 447 kts | 172° |
| 2026-04-26 08:53 | 54.76974 | -3.53228 | 32494 ft | 448 kts | 172° |
| 2026-04-26 08:53 | 54.73964 | -3.52012 | 32757 ft | 450 kts | 172° |
| 2026-04-26 08:53 | 54.70910 | -3.50781 | 33044 ft | 452 kts | 172° |
| 2026-04-26 08:54 | 54.67847 | -3.49546 | 33412 ft | 451 kts | 172° |
| 2026-04-26 08:54 | 54.64791 | -3.48313 | 33806 ft | 450 kts | 172° |
| 2026-04-26 08:54 | 54.61750 | -3.47091 | 34171 ft | 449 kts | 172° |
| 2026-04-26 08:54 | 54.58707 | -3.45868 | 34505 ft | 448 kts | 172° |
| 2026-04-26 08:55 | 54.55671 | -3.44650 | 34785 ft | 448 kts | 172° |
| 2026-04-26 08:55 | 54.52639 | -3.43438 | 35087 ft | 448 kts | 172° |
| 2026-04-26 08:55 | 54.49607 | -3.42225 | 35370 ft | 447 kts | 171° |
| 2026-04-26 08:55 | 54.46572 | -3.41016 | 35646 ft | 447 kts | 171° |
| 2026-04-26 08:56 | 54.43538 | -3.39809 | 35916 ft | 447 kts | 171° |
| 2026-04-26 08:56 | 54.41533 | -3.39012 | 36088 ft | 447 kts | 171° |
| 2026-04-26 08:56 | 54.37487 | -3.37407 | 36447 ft | 446 kts | 171° |
| 2026-04-26 08:56 | 54.34455 | -3.36206 | 36696 ft | 446 kts | 171° |
| 2026-04-26 08:57 | 54.31432 | -3.35012 | 36943 ft | 446 kts | 171° |
| 2026-04-26 08:57 | 54.28412 | -3.33821 | 37193 ft | 446 kts | 171° |
| 2026-04-26 08:57 | 54.25387 | -3.32630 | 37312 ft | 447 kts | 171° |
| 2026-04-26 08:58 | 54.19346 | -3.30257 | 37296 ft | 444 kts | 171° |
| 2026-04-26 08:58 | 54.13350 | -3.27910 | 37294 ft | 445 kts | 171° |
| 2026-04-26 08:59 | 54.07320 | -3.25556 | 37295 ft | 445 kts | 171° |
| 2026-04-26 08:59 | 54.01288 | -3.23209 | 37296 ft | 445 kts | 171° |
| 2026-04-26 09:00 | 53.95241 | -3.20906 | 37290 ft | 445 kts | 171° |
| 2026-04-26 09:00 | 53.89210 | -3.18615 | 37287 ft | 444 kts | 171° |
| 2026-04-26 09:01 | 53.83173 | -3.16328 | 37285 ft | 444 kts | 171° |
| 2026-04-26 09:01 | 53.77138 | -3.14049 | 37284 ft | 444 kts | 171° |
| 2026-04-26 09:02 | 53.71106 | -3.11777 | 37283 ft | 444 kts | 172° |
| 2026-04-26 09:02 | 53.65072 | -3.09511 | 37302 ft | 444 kts | 172° |
| 2026-04-26 09:03 | 53.59445 | -3.07405 | 37285 ft | 444 kts | 171° |
| 2026-04-26 09:03 | 53.53413 | -3.05153 | 37283 ft | 445 kts | 171° |
| 2026-04-26 09:04 | 53.47364 | -3.02900 | 37313 ft | 445 kts | 171° |
| 2026-04-26 09:04 | 53.41358 | -3.00671 | 37314 ft | 445 kts | 172° |
| 2026-04-26 09:05 | 53.35268 | -2.98418 | 37317 ft | 445 kts | 172° |
| 2026-04-26 09:05 | 53.29259 | -2.96200 | 37318 ft | 445 kts | 172° |
| 2026-04-26 09:06 | 53.23207 | -2.93973 | 37316 ft | 445 kts | 171° |
| 2026-04-26 09:06 | 53.17156 | -2.91753 | 37321 ft | 446 kts | 171° |
| 2026-04-26 09:07 | 53.11094 | -2.89534 | 37316 ft | 445 kts | 171° |
| 2026-04-26 09:07 | 53.06040 | -2.88517 | 37316 ft | 434 kts | 188° |
| 2026-04-26 09:08 | 52.99965 | -2.88983 | 37320 ft | 438 kts | 186° |
| 2026-04-26 09:08 | 52.93874 | -2.89463 | 37314 ft | 437 kts | 187° |
| 2026-04-26 09:09 | 52.87826 | -2.90316 | 37320 ft | 434 kts | 192° |
| 2026-04-26 09:09 | 52.81834 | -2.91737 | 37317 ft | 435 kts | 191° |
| 2026-04-26 09:10 | 52.75834 | -2.93076 | 37319 ft | 435 kts | 191° |
| 2026-04-26 09:10 | 52.69815 | -2.94116 | 37320 ft | 438 kts | 185° |
| 2026-04-26 09:11 | 52.63727 | -2.94536 | 37316 ft | 438 kts | 186° |
| 2026-04-26 09:11 | 52.57648 | -2.95044 | 37318 ft | 437 kts | 187° |
| 2026-04-26 09:12 | 52.51563 | -2.95563 | 37314 ft | 437 kts | 187° |
| 2026-04-26 09:12 | 52.45490 | -2.96081 | 37313 ft | 437 kts | 187° |
| 2026-04-26 09:13 | 52.39412 | -2.96598 | 37319 ft | 437 kts | 187° |
| 2026-04-26 09:13 | 52.33374 | -2.97110 | 37309 ft | 437 kts | 186° |
| 2026-04-26 09:14 | 52.27300 | -2.97624 | 37317 ft | 437 kts | 186° |
| 2026-04-26 09:14 | 52.21224 | -2.98136 | 37313 ft | 437 kts | 186° |
| 2026-04-26 09:15 | 52.15149 | -2.98648 | 37315 ft | 437 kts | 186° |
| 2026-04-26 09:15 | 52.09072 | -2.99157 | 37312 ft | 437 kts | 186° |
| 2026-04-26 09:16 | 52.03035 | -2.99662 | 37319 ft | 437 kts | 186° |
| 2026-04-26 09:16 | 51.96922 | -3.00173 | 37326 ft | 437 kts | 186° |
| 2026-04-26 09:17 | 51.90883 | -3.00676 | 37336 ft | 437 kts | 186° |
| 2026-04-26 09:17 | 51.84862 | -3.01706 | 37352 ft | 434 kts | 191° |
| 2026-04-26 09:18 | 51.78870 | -3.02985 | 37341 ft | 435 kts | 191° |
| 2026-04-26 09:18 | 51.72872 | -3.04217 | 37354 ft | 435 kts | 191° |
| 2026-04-26 09:19 | 51.66863 | -3.05443 | 37343 ft | 435 kts | 191° |
| 2026-04-26 09:19 | 51.60860 | -3.06664 | 37331 ft | 435 kts | 191° |
| 2026-04-26 09:20 | 51.54855 | -3.07882 | 37331 ft | 435 kts | 191° |
| 2026-04-26 09:20 | 51.48887 | -3.09088 | 37285 ft | 435 kts | 191° |
| 2026-04-26 09:21 | 51.42881 | -3.10301 | 37294 ft | 435 kts | 190° |
| 2026-04-26 09:21 | 51.36864 | -3.11520 | 37288 ft | 435 kts | 191° |
| 2026-04-26 09:22 | 51.30851 | -3.12752 | 37297 ft | 435 kts | 191° |
| 2026-04-26 09:22 | 51.24837 | -3.13981 | 37290 ft | 435 kts | 191° |
| 2026-04-26 09:23 | 51.18822 | -3.15206 | 37288 ft | 436 kts | 191° |
| 2026-04-26 09:23 | 51.12813 | -3.16427 | 37295 ft | 435 kts | 191° |
| 2026-04-26 09:24 | 51.06801 | -3.17646 | 37293 ft | 435 kts | 191° |
| 2026-04-26 09:24 | 51.00793 | -3.18860 | 37290 ft | 435 kts | 191° |
| 2026-04-26 09:25 | 50.94788 | -3.20071 | 37290 ft | 435 kts | 191° |
| 2026-04-26 09:25 | 50.88776 | -3.21281 | 37292 ft | 435 kts | 191° |
| 2026-04-26 09:26 | 50.82808 | -3.22478 | 37287 ft | 434 kts | 190° |
| 2026-04-26 09:26 | 50.76817 | -3.23676 | 37285 ft | 434 kts | 190° |
| 2026-04-26 09:27 | 50.70828 | -3.24871 | 37288 ft | 434 kts | 190° |
| 2026-04-26 09:27 | 50.64829 | -3.26065 | 37290 ft | 434 kts | 190° |
| 2026-04-26 09:28 | 50.58840 | -3.27254 | 37291 ft | 433 kts | 190° |
| 2026-04-26 09:28 | 50.52860 | -3.28438 | 37286 ft | 433 kts | 190° |
| 2026-04-26 09:29 | 50.46909 | -3.29614 | 37285 ft | 433 kts | 190° |
| 2026-04-26 09:29 | 50.40932 | -3.30792 | 37282 ft | 433 kts | 190° |
| 2026-04-26 09:30 | 50.34904 | -3.30902 | 37279 ft | 437 kts | 180° |
| 2026-04-26 09:30 | 50.28829 | -3.30375 | 37276 ft | 437 kts | 180° |
| 2026-04-26 09:31 | 50.22755 | -3.29836 | 37272 ft | 437 kts | 180° |
| 2026-04-26 09:31 | 50.16722 | -3.29300 | 37272 ft | 437 kts | 180° |
| 2026-04-26 09:32 | 50.10639 | -3.28761 | 37267 ft | 437 kts | 180° |
| 2026-04-26 09:32 | 50.04566 | -3.28224 | 37264 ft | 437 kts | 180° |
| 2026-04-26 09:33 | 49.98491 | -3.27688 | 37261 ft | 437 kts | 180° |
| 2026-04-26 09:33 | 49.92419 | -3.27154 | 37262 ft | 437 kts | 180° |
| 2026-04-26 09:34 | 49.86341 | -3.26620 | 37261 ft | 437 kts | 180° |
| 2026-04-26 09:34 | 49.80295 | -3.26091 | 37258 ft | 437 kts | 180° |
| 2026-04-26 09:34 | 49.77272 | -3.25487 | 37247 ft | 441 kts | 169° |
| 2026-04-26 09:35 | 49.74297 | -3.24319 | 37250 ft | 442 kts | 170° |
| 2026-04-26 09:35 | 49.68316 | -3.22092 | 37255 ft | 442 kts | 169° |
| 2026-04-26 09:36 | 49.62330 | -3.19849 | 37249 ft | 442 kts | 169° |
| 2026-04-26 09:36 | 49.56349 | -3.17612 | 37251 ft | 442 kts | 169° |
| 2026-04-26 09:37 | 49.50365 | -3.15379 | 37249 ft | 442 kts | 169° |
| 2026-04-26 09:37 | 49.44375 | -3.13150 | 37251 ft | 442 kts | 169° |
| 2026-04-26 09:38 | 49.38396 | -3.10930 | 37248 ft | 443 kts | 169° |
| 2026-04-26 09:38 | 49.32388 | -3.08705 | 37247 ft | 443 kts | 169° |
| 2026-04-26 09:39 | 49.26431 | -3.06505 | 37247 ft | 443 kts | 170° |
| 2026-04-26 09:39 | 49.20435 | -3.04296 | 37245 ft | 443 kts | 170° |
| 2026-04-26 09:40 | 49.14469 | -3.02103 | 37250 ft | 443 kts | 170° |
| 2026-04-26 09:40 | 49.08473 | -2.99905 | 37245 ft | 443 kts | 170° |
| 2026-04-26 09:41 | 49.02449 | -2.97701 | 37244 ft | 443 kts | 170° |
| 2026-04-26 09:41 | 48.96452 | -2.95514 | 37246 ft | 443 kts | 170° |
| 2026-04-26 09:42 | 48.90451 | -2.93330 | 37241 ft | 443 kts | 170° |
| 2026-04-26 09:42 | 48.84448 | -2.91151 | 37241 ft | 443 kts | 170° |
| 2026-04-26 09:43 | 48.78494 | -2.88994 | 37238 ft | 443 kts | 170° |
| 2026-04-26 09:43 | 48.72500 | -2.86829 | 37233 ft | 443 kts | 170° |
| 2026-04-26 09:44 | 48.66503 | -2.84668 | 37236 ft | 443 kts | 170° |
| 2026-04-26 09:44 | 48.60502 | -2.82511 | 37235 ft | 443 kts | 170° |
| 2026-04-26 09:45 | 48.54499 | -2.80358 | 37234 ft | 443 kts | 170° |
| 2026-04-26 09:45 | 48.48494 | -2.78210 | 37237 ft | 443 kts | 170° |
| 2026-04-26 09:46 | 48.42492 | -2.76068 | 37241 ft | 443 kts | 170° |
| 2026-04-26 09:46 | 48.36490 | -2.73931 | 37232 ft | 443 kts | 170° |
| 2026-04-26 09:47 | 48.30479 | -2.71797 | 37223 ft | 443 kts | 170° |
| 2026-04-26 09:47 | 48.24464 | -2.69666 | 37221 ft | 444 kts | 170° |
| 2026-04-26 09:48 | 48.18447 | -2.67540 | 37215 ft | 444 kts | 170° |
| 2026-04-26 09:48 | 48.12463 | -2.65430 | 37217 ft | 444 kts | 170° |
| 2026-04-26 09:49 | 48.06446 | -2.63314 | 37214 ft | 444 kts | 170° |
| 2026-04-26 09:49 | 48.00439 | -2.61206 | 37223 ft | 444 kts | 170° |
| 2026-04-26 09:50 | 47.94694 | -2.59195 | 37215 ft | 445 kts | 170° |
| 2026-04-26 09:50 | 47.88811 | -2.57140 | 37216 ft | 445 kts | 170° |
| 2026-04-26 09:51 | 47.82785 | -2.55040 | 37211 ft | 445 kts | 170° |
| 2026-04-26 09:51 | 47.76798 | -2.52957 | 37213 ft | 445 kts | 170° |
| 2026-04-26 09:52 | 47.70761 | -2.50864 | 37209 ft | 445 kts | 170° |
| 2026-04-26 09:52 | 47.61879 | -2.46596 | 37208 ft | 449 kts | 163° |
| 2026-04-26 09:53 | 47.55999 | -2.43516 | 37213 ft | 449 kts | 163° |
| 2026-04-26 09:53 | 47.50114 | -2.40437 | 37217 ft | 449 kts | 163° |
| 2026-04-26 09:54 | 47.45203 | -2.37873 | 37209 ft | 449 kts | 163° |
| 2026-04-26 09:54 | 47.39307 | -2.34801 | 37216 ft | 450 kts | 163° |
| 2026-04-26 09:55 | 47.32442 | -2.31233 | 37205 ft | 450 kts | 163° |
| 2026-04-26 09:55 | 47.27486 | -2.28663 | 37213 ft | 450 kts | 163° |
| 2026-04-26 09:56 | 47.21573 | -2.25605 | 37208 ft | 450 kts | 163° |
| 2026-04-26 09:56 | 47.15684 | -2.22564 | 37210 ft | 451 kts | 163° |
| 2026-04-26 09:57 | 47.09757 | -2.19513 | 37207 ft | 451 kts | 163° |
| 2026-04-26 09:57 | 47.03832 | -2.16470 | 37207 ft | 451 kts | 163° |
| 2026-04-26 09:58 | 46.97937 | -2.13449 | 37208 ft | 451 kts | 163° |
| 2026-04-26 09:58 | 46.91999 | -2.10412 | 37205 ft | 452 kts | 163° |
| 2026-04-26 09:59 | 46.86172 | -2.06903 | 37211 ft | 454 kts | 159° |
| 2026-04-26 09:59 | 46.80367 | -2.03238 | 37200 ft | 454 kts | 159° |
| 2026-04-26 10:00 | 46.74549 | -1.99613 | 37209 ft | 454 kts | 159° |
| 2026-04-26 10:00 | 46.68726 | -1.95996 | 37207 ft | 455 kts | 159° |
| 2026-04-26 10:01 | 46.62899 | -1.92386 | 37207 ft | 455 kts | 159° |
| 2026-04-26 10:01 | 46.57102 | -1.88803 | 37207 ft | 455 kts | 159° |
| 2026-04-26 10:02 | 46.51269 | -1.85204 | 37213 ft | 456 kts | 159° |
| 2026-04-26 10:02 | 46.45692 | -1.80766 | 37229 ft | 458 kts | 152° |
| 2026-04-26 10:03 | 46.40179 | -1.76128 | 37216 ft | 458 kts | 152° |
| 2026-04-26 10:03 | 46.34660 | -1.71486 | 37221 ft | 458 kts | 152° |
| 2026-04-26 10:04 | 46.29139 | -1.66853 | 37219 ft | 458 kts | 152° |
| 2026-04-26 10:04 | 46.23620 | -1.62232 | 37216 ft | 458 kts | 152° |
| 2026-04-26 10:05 | 46.18093 | -1.57616 | 37210 ft | 458 kts | 151° |
| 2026-04-26 10:05 | 46.12570 | -1.53013 | 37213 ft | 458 kts | 151° |
| 2026-04-26 10:06 | 46.07047 | -1.48421 | 37207 ft | 458 kts | 151° |
| 2026-04-26 10:06 | 46.01520 | -1.43837 | 37210 ft | 458 kts | 151° |
| 2026-04-26 10:07 | 45.95999 | -1.39270 | 37205 ft | 458 kts | 151° |
| 2026-04-26 10:07 | 45.90504 | -1.34734 | 37208 ft | 458 kts | 151° |
| 2026-04-26 10:08 | 45.84978 | -1.30183 | 37204 ft | 458 kts | 151° |
| 2026-04-26 10:08 | 45.79446 | -1.25637 | 37210 ft | 458 kts | 151° |
| 2026-04-26 10:09 | 45.73911 | -1.21100 | 37203 ft | 458 kts | 151° |
| 2026-04-26 10:09 | 45.68384 | -1.16579 | 37209 ft | 458 kts | 151° |
| 2026-04-26 10:10 | 45.62856 | -1.12068 | 37206 ft | 457 kts | 151° |
| 2026-04-26 10:10 | 45.57328 | -1.07568 | 37205 ft | 457 kts | 151° |
| 2026-04-26 10:11 | 45.51796 | -1.03074 | 37202 ft | 457 kts | 151° |
| 2026-04-26 10:11 | 45.46269 | -0.98595 | 37202 ft | 457 kts | 151° |
| 2026-04-26 10:12 | 45.40738 | -0.94122 | 37198 ft | 456 kts | 151° |
| 2026-04-26 10:12 | 45.35252 | -0.89696 | 37209 ft | 457 kts | 151° |
| 2026-04-26 10:13 | 45.29727 | -0.85249 | 37200 ft | 456 kts | 151° |
| 2026-04-26 10:13 | 45.24200 | -0.80810 | 37203 ft | 456 kts | 151° |
| 2026-04-26 10:14 | 45.18681 | -0.76387 | 37196 ft | 456 kts | 151° |
| 2026-04-26 10:14 | 45.13151 | -0.71966 | 37208 ft | 456 kts | 151° |
| 2026-04-26 10:15 | 45.07636 | -0.67566 | 37206 ft | 455 kts | 151° |
| 2026-04-26 10:15 | 45.02113 | -0.63171 | 37214 ft | 455 kts | 151° |
| 2026-04-26 10:16 | 44.96599 | -0.58791 | 37202 ft | 455 kts | 151° |
| 2026-04-26 10:16 | 44.91084 | -0.54421 | 37209 ft | 454 kts | 151° |
| 2026-04-26 10:17 | 44.85576 | -0.50066 | 37206 ft | 454 kts | 151° |
| 2026-04-26 10:17 | 44.80098 | -0.45745 | 37204 ft | 454 kts | 151° |
| 2026-04-26 10:18 | 44.74590 | -0.41407 | 37208 ft | 453 kts | 151° |
| 2026-04-26 10:18 | 44.69085 | -0.37081 | 37200 ft | 453 kts | 151° |
| 2026-04-26 10:19 | 44.63420 | -0.33304 | 37203 ft | 449 kts | 167° |
| 2026-04-26 10:19 | 44.57359 | -0.31007 | 37205 ft | 451 kts | 165° |
| 2026-04-26 10:20 | 44.52319 | -0.29095 | 37203 ft | 451 kts | 166° |
| 2026-04-26 10:20 | 44.45239 | -0.26445 | 37196 ft | 450 kts | 166° |
| 2026-04-26 10:21 | 44.39183 | -0.24186 | 37196 ft | 450 kts | 166° |
| 2026-04-26 10:21 | 44.33129 | -0.21932 | 37207 ft | 450 kts | 166° |
| 2026-04-26 10:22 | 44.27085 | -0.19687 | 37218 ft | 449 kts | 166° |
| 2026-04-26 10:22 | 44.21084 | -0.17463 | 37216 ft | 449 kts | 166° |
| 2026-04-26 10:23 | 44.15048 | -0.15231 | 37206 ft | 448 kts | 166° |
| 2026-04-26 10:23 | 44.09016 | -0.13005 | 37216 ft | 448 kts | 166° |
| 2026-04-26 10:24 | 44.02988 | -0.10785 | 37197 ft | 447 kts | 166° |
| 2026-04-26 10:24 | 43.96973 | -0.08574 | 37203 ft | 447 kts | 166° |
| 2026-04-26 10:25 | 43.90965 | -0.06370 | 37200 ft | 446 kts | 166° |
| 2026-04-26 10:25 | 43.84999 | -0.04187 | 37213 ft | 446 kts | 166° |
| 2026-04-26 10:26 | 43.78995 | -0.01994 | 37208 ft | 446 kts | 166° |
| 2026-04-26 10:26 | 43.72999 | 0.00191 | 37203 ft | 446 kts | 166° |
| 2026-04-26 10:27 | 43.67021 | 0.02366 | 37215 ft | 445 kts | 166° |
| 2026-04-26 10:27 | 43.61012 | 0.04546 | 37206 ft | 445 kts | 166° |
| 2026-04-26 10:28 | 43.55039 | 0.06711 | 37206 ft | 445 kts | 166° |
| 2026-04-26 10:28 | 43.49056 | 0.08873 | 37208 ft | 445 kts | 166° |
| 2026-04-26 10:29 | 43.43077 | 0.11030 | 37205 ft | 444 kts | 166° |
| 2026-04-26 10:29 | 43.37101 | 0.13182 | 37200 ft | 444 kts | 166° |
| 2026-04-26 10:30 | 43.31045 | 0.14522 | 37220 ft | 439 kts | 181° |
| 2026-04-26 10:30 | 43.24913 | 0.14629 | 37214 ft | 441 kts | 180° |
| 2026-04-26 10:31 | 43.18780 | 0.14703 | 37212 ft | 441 kts | 180° |
| 2026-04-26 10:31 | 43.12679 | 0.14760 | 37204 ft | 441 kts | 181° |
| 2026-04-26 10:32 | 43.06551 | 0.14814 | 37210 ft | 440 kts | 180° |
| 2026-04-26 10:32 | 43.00428 | 0.14869 | 37194 ft | 440 kts | 180° |
| 2026-04-26 10:33 | 42.94299 | 0.14924 | 37196 ft | 440 kts | 180° |
| 2026-04-26 10:33 | 42.88197 | 0.14978 | 37197 ft | 440 kts | 180° |
| 2026-04-26 10:34 | 42.82084 | 0.15032 | 37187 ft | 439 kts | 180° |
| 2026-04-26 10:34 | 42.75970 | 0.15086 | 37161 ft | 438 kts | 181° |
| 2026-04-26 10:35 | 42.69881 | 0.15142 | 37165 ft | 438 kts | 180° |
| 2026-04-26 10:35 | 42.63791 | 0.15197 | 37164 ft | 437 kts | 180° |
| 2026-04-26 10:36 | 42.57707 | 0.15253 | 37170 ft | 437 kts | 180° |
| 2026-04-26 10:36 | 42.51677 | 0.15307 | 37168 ft | 436 kts | 180° |
| 2026-04-26 10:37 | 42.45605 | 0.15362 | 37152 ft | 436 kts | 180° |
| 2026-04-26 10:37 | 42.39523 | 0.15417 | 37153 ft | 436 kts | 180° |
| 2026-04-26 10:38 | 42.33456 | 0.15472 | 37158 ft | 436 kts | 180° |
| 2026-04-26 10:38 | 42.27388 | 0.15526 | 37150 ft | 436 kts | 180° |
| 2026-04-26 10:39 | 42.21311 | 0.15581 | 37154 ft | 436 kts | 180° |
| 2026-04-26 10:39 | 42.16270 | 0.15626 | 37148 ft | 436 kts | 180° |
| 2026-04-26 10:40 | 42.10196 | 0.15681 | 37154 ft | 436 kts | 180° |
| 2026-04-26 10:40 | 42.03161 | 0.15245 | 37160 ft | 435 kts | 186° |
| 2026-04-26 10:41 | 41.97125 | 0.14361 | 37149 ft | 436 kts | 187° |
| 2026-04-26 10:41 | 41.91073 | 0.13457 | 37155 ft | 441 kts | 187° |
| 2026-04-26 10:42 | 41.85991 | 0.12696 | 37153 ft | 443 kts | 187° |
| 2026-04-26 10:42 | 41.79868 | 0.11782 | 37155 ft | 443 kts | 187° |
| 2026-04-26 10:43 | 41.73746 | 0.10869 | 37157 ft | 443 kts | 187° |
| 2026-04-26 10:43 | 41.67627 | 0.09959 | 37155 ft | 443 kts | 187° |
| 2026-04-26 10:44 | 41.61502 | 0.09049 | 37156 ft | 443 kts | 186° |
| 2026-04-26 10:44 | 41.55379 | 0.08141 | 37150 ft | 443 kts | 186° |
| 2026-04-26 10:45 | 41.49255 | 0.07236 | 37150 ft | 442 kts | 186° |
| 2026-04-26 10:45 | 41.43125 | 0.06330 | 37156 ft | 443 kts | 186° |
| 2026-04-26 10:46 | 41.37048 | 0.05435 | 37154 ft | 442 kts | 186° |
| 2026-04-26 10:46 | 41.30929 | 0.04535 | 37153 ft | 442 kts | 186° |
| 2026-04-26 10:47 | 41.24816 | 0.03637 | 37153 ft | 442 kts | 186° |
| 2026-04-26 10:47 | 41.18700 | 0.02741 | 37157 ft | 442 kts | 186° |
| 2026-04-26 10:48 | 41.12587 | 0.01847 | 37156 ft | 441 kts | 186° |
| 2026-04-26 10:48 | 41.06494 | 0.00956 | 37155 ft | 441 kts | 186° |
| 2026-04-26 10:49 | 41.00399 | 0.00066 | 37160 ft | 440 kts | 186° |
| 2026-04-26 10:49 | 40.94354 | -0.00814 | 37157 ft | 439 kts | 186° |
| 2026-04-26 10:50 | 40.89270 | -0.01554 | 37156 ft | 438 kts | 186° |
| 2026-04-26 10:50 | 40.82221 | -0.02577 | 37156 ft | 438 kts | 186° |
| 2026-04-26 10:51 | 40.73130 | -0.03894 | 37153 ft | 438 kts | 186° |
| 2026-04-26 10:52 | 40.67067 | -0.04770 | 37163 ft | 438 kts | 186° |
| 2026-04-26 10:52 | 40.61009 | -0.05644 | 37166 ft | 438 kts | 186° |
| 2026-04-26 10:53 | 40.54967 | -0.06712 | 37155 ft | 437 kts | 195° |
| 2026-04-26 10:53 | 40.49136 | -0.09045 | 37174 ft | 438 kts | 196° |
| 2026-04-26 10:54 | 40.40467 | -0.12471 | 37178 ft | 431 kts | 196° |
| 2026-04-26 10:54 | 40.34746 | -0.14731 | 37188 ft | 431 kts | 196° |
| 2026-04-26 10:55 | 40.29325 | -0.16870 | 37181 ft | 431 kts | 195° |
| 2026-04-26 10:55 | 40.23568 | -0.19136 | 37183 ft | 432 kts | 195° |
| 2026-04-26 10:56 | 40.17818 | -0.21397 | 37174 ft | 431 kts | 195° |
| 2026-04-26 10:56 | 40.12069 | -0.23652 | 37178 ft | 431 kts | 195° |
| 2026-04-26 10:57 | 40.06315 | -0.25906 | 37171 ft | 431 kts | 195° |
| 2026-04-26 10:57 | 40.00563 | -0.28155 | 37160 ft | 431 kts | 195° |
| 2026-04-26 10:58 | 39.94898 | -0.30364 | 36886 ft | 417 kts | 195° |
| 2026-04-26 10:58 | 39.92112 | -0.31449 | 36309 ft | 416 kts | 195° |
| 2026-04-26 10:58 | 39.89333 | -0.32532 | 35665 ft | 417 kts | 195° |
| 2026-04-26 10:59 | 39.86555 | -0.33612 | 35107 ft | 416 kts | 195° |
| 2026-04-26 10:59 | 39.83828 | -0.34672 | 34670 ft | 413 kts | 195° |
| 2026-04-26 10:59 | 39.81043 | -0.35755 | 34220 ft | 412 kts | 195° |
| 2026-04-26 10:59 | 39.78340 | -0.36803 | 33691 ft | 410 kts | 195° |
| 2026-04-26 11:00 | 39.75616 | -0.37860 | 33161 ft | 406 kts | 194° |
| 2026-04-26 11:00 | 39.72917 | -0.38907 | 32693 ft | 404 kts | 194° |
| 2026-04-26 11:00 | 39.70179 | -0.39967 | 32204 ft | 416 kts | 194° |
| 2026-04-26 11:00 | 39.67377 | -0.41051 | 31707 ft | 422 kts | 194° |
| 2026-04-26 11:01 | 39.64552 | -0.42142 | 31249 ft | 424 kts | 194° |
| 2026-04-26 11:01 | 39.61764 | -0.43219 | 30771 ft | 428 kts | 194° |
| 2026-04-26 11:01 | 39.58893 | -0.44327 | 30287 ft | 432 kts | 195° |
| 2026-04-26 11:01 | 39.55995 | -0.45444 | 29730 ft | 434 kts | 194° |
| 2026-04-26 11:02 | 39.53133 | -0.46547 | 29225 ft | 436 kts | 194° |
| 2026-04-26 11:02 | 39.50186 | -0.47682 | 28760 ft | 437 kts | 194° |
| 2026-04-26 11:02 | 39.47287 | -0.48747 | 28196 ft | 437 kts | 193° |
| 2026-04-26 11:02 | 39.44339 | -0.49790 | 27775 ft | 439 kts | 193° |
| 2026-04-26 11:03 | 39.41386 | -0.50842 | 27323 ft | 440 kts | 193° |
| 2026-04-26 11:03 | 39.38427 | -0.51898 | 26865 ft | 441 kts | 193° |
| 2026-04-26 11:03 | 39.35459 | -0.52956 | 26399 ft | 443 kts | 193° |
| 2026-04-26 11:03 | 39.32482 | -0.54018 | 25919 ft | 444 kts | 193° |
| 2026-04-26 11:04 | 39.29500 | -0.55080 | 25462 ft | 445 kts | 193° |
| 2026-04-26 11:04 | 39.26554 | -0.56128 | 25018 ft | 443 kts | 193° |
| 2026-04-26 11:04 | 39.23599 | -0.57179 | 24558 ft | 439 kts | 193° |
| 2026-04-26 11:04 | 39.20665 | -0.58222 | 24108 ft | 436 kts | 193° |
| 2026-04-26 11:05 | 39.17747 | -0.59257 | 23645 ft | 433 kts | 193° |
| 2026-04-26 11:05 | 39.14852 | -0.60284 | 23126 ft | 431 kts | 193° |
| 2026-04-26 11:05 | 39.11965 | -0.61308 | 22670 ft | 428 kts | 193° |
| 2026-04-26 11:05 | 39.09097 | -0.62323 | 22232 ft | 426 kts | 193° |
| 2026-04-26 11:06 | 39.06248 | -0.63330 | 21799 ft | 424 kts | 193° |
| 2026-04-26 11:06 | 39.03417 | -0.64331 | 21361 ft | 421 kts | 193° |
| 2026-04-26 11:06 | 39.00613 | -0.65322 | 20934 ft | 415 kts | 193° |
| 2026-04-26 11:06 | 38.97855 | -0.66295 | 20512 ft | 408 kts | 193° |
| 2026-04-26 11:07 | 38.95128 | -0.67257 | 20101 ft | 403 kts | 193° |
| 2026-04-26 11:07 | 38.92440 | -0.68204 | 19682 ft | 399 kts | 193° |
| 2026-04-26 11:07 | 38.89836 | -0.69400 | 19275 ft | 397 kts | 202° |
| 2026-04-26 11:07 | 38.87335 | -0.70818 | 18948 ft | 390 kts | 200° |
| 2026-04-26 11:08 | 38.84856 | -0.72169 | 18635 ft | 384 kts | 200° |
| 2026-04-26 11:08 | 38.82395 | -0.73488 | 18165 ft | 383 kts | 200° |
| 2026-04-26 11:08 | 38.79939 | -0.74792 | 17720 ft | 380 kts | 200° |
| 2026-04-26 11:08 | 38.77504 | -0.76078 | 17256 ft | 377 kts | 200° |
| 2026-04-26 11:09 | 38.75113 | -0.77338 | 16845 ft | 375 kts | 199° |
| 2026-04-26 11:09 | 38.72710 | -0.78604 | 16399 ft | 373 kts | 199° |
| 2026-04-26 11:09 | 38.70317 | -0.79862 | 15998 ft | 371 kts | 199° |
| 2026-04-26 11:09 | 38.67937 | -0.81114 | 15566 ft | 369 kts | 199° |
| 2026-04-26 11:10 | 38.65566 | -0.82359 | 15164 ft | 367 kts | 199° |
| 2026-04-26 11:10 | 38.63207 | -0.83597 | 14771 ft | 365 kts | 199° |
| 2026-04-26 11:10 | 38.60864 | -0.84826 | 14356 ft | 364 kts | 198° |
| 2026-04-26 11:10 | 38.58526 | -0.86051 | 13981 ft | 361 kts | 199° |
| 2026-04-26 11:11 | 38.56206 | -0.87267 | 13524 ft | 360 kts | 199° |
| 2026-04-26 11:11 | 38.53898 | -0.88476 | 13112 ft | 357 kts | 199° |
| 2026-04-26 11:11 | 38.51601 | -0.89677 | 12680 ft | 355 kts | 199° |
| 2026-04-26 11:11 | 38.49318 | -0.90870 | 12282 ft | 353 kts | 199° |
| 2026-04-26 11:12 | 38.47046 | -0.92058 | 11883 ft | 352 kts | 199° |
| 2026-04-26 11:12 | 38.44783 | -0.93239 | 11499 ft | 350 kts | 199° |
| 2026-04-26 11:12 | 38.42548 | -0.94414 | 11180 ft | 343 kts | 201° |
| 2026-04-26 11:12 | 38.40446 | -0.95756 | 10754 ft | 332 kts | 206° |
| 2026-04-26 11:13 | 38.38664 | -0.97572 | 10348 ft | 327 kts | 227° |
| 2026-04-26 11:13 | 38.37301 | -0.99781 | 10057 ft | 316 kts | 231° |
| 2026-04-26 11:13 | 38.35997 | -1.01986 | 9636 ft | 308 kts | 231° |
| 2026-04-26 11:13 | 38.34720 | -1.04134 | 9195 ft | 301 kts | 231° |
| 2026-04-26 11:14 | 38.33459 | -1.06239 | 8742 ft | 297 kts | 229° |
| 2026-04-26 11:14 | 38.31964 | -1.07984 | 8281 ft | 289 kts | 207° |
| 2026-04-26 11:14 | 38.30099 | -1.08764 | 7804 ft | 280 kts | 181° |
| 2026-04-26 11:14 | 38.28810 | -1.08649 | 7512 ft | 272 kts | 162° |
| 2026-04-26 11:15 | 38.26711 | -1.07120 | 6984 ft | 259 kts | 132° |
| 2026-04-26 11:15 | 38.25717 | -1.05260 | 6534 ft | 253 kts | 109° |
| 2026-04-26 11:15 | 38.25417 | -1.03096 | 6157 ft | 247 kts | 87° |
| 2026-04-26 11:15 | 38.25802 | -1.01014 | 5880 ft | 241 kts | 65° |
| 2026-04-26 11:16 | 38.26619 | -0.99227 | 5709 ft | 239 kts | 60° |
| 2026-04-26 11:16 | 38.27472 | -0.97414 | 5554 ft | 237 kts | 60° |
| 2026-04-26 11:16 | 38.28301 | -0.95631 | 5417 ft | 229 kts | 60° |
| 2026-04-26 11:16 | 38.29082 | -0.93940 | 5293 ft | 215 kts | 60° |
| 2026-04-26 11:17 | 38.29814 | -0.92344 | 5158 ft | 203 kts | 60° |
| 2026-04-26 11:17 | 38.30503 | -0.90830 | 5026 ft | 191 kts | 61° |
| 2026-04-26 11:17 | 38.31145 | -0.89414 | 4870 ft | 182 kts | 62° |
| 2026-04-26 11:17 | 38.31766 | -0.88025 | 4764 ft | 180 kts | 61° |
| 2026-04-26 11:18 | 38.32187 | -0.86562 | 4519 ft | 179 kts | 85° |
| 2026-04-26 11:18 | 38.32159 | -0.84958 | 4326 ft | 179 kts | 94° |
| 2026-04-26 11:18 | 38.32008 | -0.83384 | 4116 ft | 179 kts | 96° |
| 2026-04-26 11:18 | 38.31817 | -0.81817 | 3910 ft | 180 kts | 97° |
| 2026-04-26 11:19 | 38.31609 | -0.80247 | 3686 ft | 180 kts | 98° |
| 2026-04-26 11:19 | 38.31400 | -0.78699 | 3466 ft | 180 kts | 97° |
| 2026-04-26 11:19 | 38.31183 | -0.77129 | 3232 ft | 179 kts | 98° |
| 2026-04-26 11:19 | 38.30968 | -0.75583 | 2983 ft | 176 kts | 98° |
| 2026-04-26 11:20 | 38.30765 | -0.74106 | 2768 ft | 162 kts | 98° |
| 2026-04-26 11:20 | 38.30633 | -0.73164 | 2662 ft | 160 kts | 98° |
| 2026-04-26 11:20 | 38.30376 | -0.71320 | 2354 ft | 159 kts | 98° |
| 2026-04-26 11:20 | 38.30192 | -0.70000 | 2182 ft | 146 kts | 98° |
| 2026-04-26 11:21 | 38.30020 | -0.68754 | 1969 ft | 140 kts | 97° |
| 2026-04-26 11:21 | 38.29850 | -0.67536 | 1789 ft | 139 kts | 99° |
| 2026-04-26 11:21 | 38.29682 | -0.66330 | 1585 ft | 138 kts | 99° |
| 2026-04-26 11:21 | 38.29515 | -0.65125 | 1384 ft | 139 kts | 98° |
| 2026-04-26 11:22 | 38.29347 | -0.63913 | 1205 ft | 139 kts | 98° |
| 2026-04-26 11:22 | 38.29182 | -0.62688 | 971 ft | 142 kts | 100° |
| 2026-04-26 11:22 | 38.28998 | -0.61417 | 788 ft | 146 kts | 100° |
| 2026-04-26 11:22 | 38.28822 | -0.60175 | 595 ft | 139 kts | 99° |
| 2026-04-26 11:23 | 38.28652 | -0.58947 | 424 ft | 142 kts | 98° |
| 2026-04-26 11:23 | 38.28482 | -0.57715 | 236 ft | 139 kts | 98° |
| 2026-04-26 11:23 | 38.28322 | -0.56558 | 119 ft | 118 kts | 101° |
| 2026-04-26 11:23 | 38.28218 | -0.55825 | 107 ft | 56 kts | 101° |
| 2026-04-26 11:24 | 38.28146 | -0.55318 | 89 ft | 57 kts | 99° |
| 2026-04-26 11:24 | 38.28138 | -0.54928 | 79 ft | 34 kts | 76° |
| 2026-04-26 11:24 | 38.28184 | -0.54753 | 66 ft | 13 kts | 70° |
| 2026-04-26 11:24 | 38.28239 | -0.54727 | 65 ft | 11 kts | 302° |
| 2026-04-26 11:25 | 38.28254 | -0.54815 | 67 ft | 10 kts | 279° |
| 2026-04-26 11:25 | 38.28265 | -0.54897 | 77 ft | 9 kts | 279° |
| 2026-04-26 11:25 | 38.28275 | -0.54972 | 82 ft | 8 kts | 279° |
| 2026-04-26 11:25 | 38.28285 | -0.55040 | 84 ft | 7 kts | 282° |
| 2026-04-26 11:26 | 38.28294 | -0.55099 | 85 ft | 7 kts | 282° |
| 2026-04-26 11:26 | 38.28311 | -0.55186 | 89 ft | 11 kts | 302° |
| 2026-04-26 11:26 | 38.28367 | -0.55188 | 91 ft | 8 kts | 36° |
| 2026-04-26 11:26 | 38.28410 | -0.55149 | 93 ft | 8 kts | 2° |
| 2026-04-26 11:27 | 38.28441 | -0.55201 | 90 ft | 9 kts | 282° |
| 2026-04-26 11:27 | 38.28461 | -0.55286 | 94 ft | 8 kts | 323° |
| 2026-04-26 11:27 | 38.28502 | -0.55283 | 92 ft | 3 kts | 9° |
| 2026-04-26 11:27 | 38.28528 | -0.55277 | 90 ft | 2 kts | 10° |
| 2026-04-26 11:28 | 38.28529 | -0.55277 | 90 ft | 0 kts | 10° |